createdAt,value
2018-12-01T00:00:35.564Z,21.15
2018-12-01T00:03:05.199Z,25.35
2018-12-01T00:05:54.552Z,12.58
2018-12-01T00:08:24.007Z,15.13
2018-12-01T00:10:53.823Z,25.17
2018-12-01T00:13:23.327Z,17.12
2018-12-01T00:15:52.862Z,17.52
2018-12-01T00:18:22.362Z,24.98
2018-12-01T00:20:51.797Z,12.25
2018-12-01T00:23:21.227Z,11.97
2018-12-01T00:25:50.615Z,10.95
2018-12-01T00:28:20.056Z,42.33
2018-12-01T00:30:49.505Z,21.02
2018-12-01T00:33:19.021Z,15.43
2018-12-01T00:35:48.467Z,15.72
2018-12-01T00:38:17.951Z,13.22
2018-12-01T00:40:47.403Z,12.55
2018-12-01T00:43:16.805Z,12.95
2018-12-01T00:45:46.215Z,11.90
2018-12-01T00:48:15.619Z,18.42
2018-12-01T00:50:45.033Z,13.05
2018-12-01T00:53:14.515Z,20.57
2018-12-01T00:55:44.027Z,12.20
2018-12-01T00:58:13.461Z,11.30
2018-12-01T01:00:43.200Z,14.53
2018-12-01T01:03:12.677Z,24.35
2018-12-01T01:05:42.163Z,15.72
2018-12-01T01:08:11.767Z,8.88
2018-12-01T01:10:41.223Z,16.17
2018-12-01T01:13:11.022Z,19.57
2018-12-01T01:15:40.463Z,10.88
2018-12-01T01:18:09.941Z,12.18
2018-12-01T01:20:39.375Z,21.05
2018-12-01T01:23:08.787Z,12.73
2018-12-01T01:25:38.211Z,30.88
2018-12-01T01:28:07.907Z,14.30
2018-12-01T01:30:37.363Z,11.60
2018-12-01T01:33:17.897Z,9.08
2018-12-01T01:35:47.354Z,10.78
2018-12-01T01:38:16.780Z,14.63
2018-12-01T01:40:47.149Z,12.30
2018-12-01T01:43:16.607Z,29.30
2018-12-01T01:45:46.020Z,9.65
2018-12-01T01:48:15.429Z,13.43
2018-12-01T01:50:44.863Z,14.15
2018-12-01T01:53:14.307Z,14.20
2018-12-01T01:55:43.898Z,12.18
2018-12-01T01:58:13.378Z,12.45
2018-12-01T02:00:42.802Z,14.95
2018-12-01T02:03:12.212Z,19.15
2018-12-01T02:05:41.632Z,10.63
2018-12-01T02:08:11.055Z,8.45
2018-12-01T02:10:40.503Z,10.70
2018-12-01T02:13:09.973Z,10.98
2018-12-01T02:15:39.488Z,11.53
2018-12-01T02:18:08.980Z,15.63
2018-12-01T02:20:38.501Z,19.20
2018-12-01T02:23:07.885Z,12.60
2018-12-01T02:25:37.336Z,9.88
2018-12-01T02:28:06.792Z,11.45
2018-12-01T02:30:36.228Z,13.53
2018-12-01T02:33:06.058Z,10.00
2018-12-01T02:35:35.489Z,10.65
2018-12-01T02:38:05.044Z,10.63
2018-12-01T02:40:34.511Z,11.60
2018-12-01T02:43:03.968Z,11.08
2018-12-01T02:45:44.464Z,13.10
2018-12-01T02:48:13.911Z,13.60
2018-12-01T02:50:43.349Z,11.57
2018-12-01T02:53:12.788Z,13.38
2018-12-01T02:55:42.229Z,19.40
2018-12-01T02:58:12.419Z,15.80
2018-12-01T03:00:42.008Z,12.85
2018-12-01T03:03:11.446Z,14.70
2018-12-01T03:05:42.508Z,14.25
2018-12-01T03:08:11.916Z,10.20
2018-12-01T03:10:41.388Z,9.18
2018-12-01T03:13:10.796Z,27.87
2018-12-01T03:15:40.245Z,10.35
2018-12-01T03:18:13.613Z,14.58
2018-12-01T03:20:40.130Z,9.80
2018-12-01T03:23:09.556Z,8.85
2018-12-01T03:25:39.044Z,11.55
2018-12-01T03:28:08.460Z,10.70
2018-12-01T03:30:37.925Z,9.78
2018-12-01T03:33:07.532Z,12.43
2018-12-01T03:35:36.954Z,12.63
2018-12-01T03:38:06.396Z,12.10
2018-12-01T03:40:41.068Z,9.23
2018-12-01T03:43:10.542Z,21.77
2018-12-01T03:45:39.964Z,15.08
2018-12-01T03:48:09.369Z,14.73
2018-12-01T03:50:38.824Z,13.68
2018-12-01T03:53:08.488Z,9.10
2018-12-01T03:55:37.940Z,42.45
2018-12-01T03:58:07.417Z,17.62
2018-12-01T04:00:37.045Z,16.48
2018-12-01T04:03:07.292Z,13.65
2018-12-01T04:05:36.695Z,12.95
2018-12-01T04:08:06.180Z,14.65
2018-12-01T04:10:35.607Z,15.58
2018-12-01T04:13:05.152Z,10.98
2018-12-01T04:15:34.676Z,12.10
2018-12-01T04:18:04.152Z,20.52
2018-12-01T04:20:33.596Z,17.27
2018-12-01T04:23:03.118Z,21.20
2018-12-01T04:25:32.536Z,12.15
2018-12-01T04:28:01.952Z,13.60
2018-12-01T04:30:31.432Z,9.93
2018-12-01T04:33:00.924Z,14.60
2018-12-01T04:35:30.454Z,12.33
2018-12-01T04:37:59.868Z,10.48
2018-12-01T04:40:29.272Z,11.97
2018-12-01T04:42:59.278Z,18.07
2018-12-01T04:45:28.746Z,12.33
2018-12-01T04:47:58.254Z,17.12
2018-12-01T04:50:27.831Z,11.65
2018-12-01T04:52:57.314Z,11.95
2018-12-01T04:55:26.776Z,18.25
2018-12-01T04:57:56.235Z,19.75
2018-12-01T05:00:25.687Z,11.75
2018-12-01T05:02:56.221Z,11.03
2018-12-01T05:05:25.661Z,15.48
2018-12-01T05:07:55.092Z,9.75
2018-12-01T05:10:24.529Z,16.77
2018-12-01T05:12:53.970Z,12.20
2018-12-01T05:15:23.467Z,15.25
2018-12-01T05:17:52.925Z,11.22
2018-12-01T05:20:24.119Z,16.90
2018-12-01T05:22:53.956Z,9.25
2018-12-01T05:25:24.580Z,12.18
2018-12-01T05:27:54.016Z,14.60
2018-12-01T05:30:23.472Z,18.12
2018-12-01T05:32:52.915Z,12.28
2018-12-01T05:35:23.619Z,16.10
2018-12-01T05:37:53.040Z,20.15
2018-12-01T05:40:22.820Z,17.15
2018-12-01T05:42:52.372Z,14.38
2018-12-01T05:45:22.622Z,14.98
2018-12-01T05:47:52.634Z,14.07
2018-12-01T05:50:27.540Z,11.00
2018-12-01T05:52:57.624Z,17.65
2018-12-01T05:55:27.127Z,11.57
2018-12-01T05:57:56.782Z,9.70
2018-12-01T06:00:26.221Z,10.23
2018-12-01T06:02:55.744Z,10.58
2018-12-01T06:05:25.453Z,13.32
2018-12-01T06:07:54.912Z,26.02
2018-12-01T06:10:25.348Z,11.28
2018-12-01T06:12:54.321Z,13.25
2018-12-01T06:15:23.736Z,13.72
2018-12-01T06:17:53.153Z,12.73
2018-12-01T06:20:23.636Z,10.38
2018-12-01T06:22:53.068Z,13.08
2018-12-01T06:25:23.724Z,30.00
2018-12-01T06:27:53.169Z,16.25
2018-12-01T06:30:22.641Z,13.93
2018-12-01T06:32:52.745Z,13.58
2018-12-01T06:35:22.151Z,13.58
2018-12-01T06:37:51.618Z,14.98
2018-12-01T06:40:21.665Z,14.75
2018-12-01T06:42:51.126Z,19.48
2018-12-01T06:45:20.550Z,22.32
2018-12-01T06:47:49.978Z,14.75
2018-12-01T06:50:21.899Z,20.00
2018-12-01T06:52:52.372Z,14.30
2018-12-01T06:55:22.924Z,17.02
2018-12-01T06:57:52.482Z,17.10
2018-12-01T07:00:25.040Z,13.05
2018-12-01T07:02:55.889Z,15.98
2018-12-01T07:05:25.406Z,14.73
2018-12-01T07:07:54.827Z,11.93
2018-12-01T07:10:24.505Z,21.50
2018-12-01T07:12:55.397Z,12.15
2018-12-01T07:15:30.469Z,13.65
2018-12-01T07:17:59.930Z,17.98
2018-12-01T07:20:29.347Z,16.87
2018-12-01T07:22:58.840Z,10.23
2018-12-01T07:25:28.350Z,13.85
2018-12-01T07:27:57.732Z,18.20
2018-12-01T07:30:27.201Z,19.80
2018-12-01T07:32:56.643Z,17.95
2018-12-01T07:35:26.135Z,15.80
2018-12-01T07:37:55.619Z,15.43
2018-12-01T07:40:25.011Z,14.13
2018-12-01T07:42:54.468Z,21.70
2018-12-01T07:45:23.924Z,16.52
2018-12-01T07:47:53.344Z,13.05
2018-12-01T07:50:22.780Z,16.90
2018-12-01T07:52:54.329Z,19.05
2018-12-01T07:55:23.714Z,21.70
2018-12-01T07:57:54.145Z,21.12
2018-12-01T08:00:23.613Z,14.18
2018-12-01T08:02:53.005Z,26.87
2018-12-01T08:05:22.505Z,18.92
2018-12-01T08:07:51.996Z,23.57
2018-12-01T08:10:21.408Z,23.05
2018-12-01T08:12:50.891Z,20.92
2018-12-01T08:15:20.335Z,17.15
2018-12-01T08:17:49.761Z,25.80
2018-12-01T08:20:19.212Z,13.15
2018-12-01T08:22:48.657Z,16.40
2018-12-01T08:25:20.107Z,29.50
2018-12-01T08:27:52.003Z,15.28
2018-12-01T08:30:25.518Z,34.33
2018-12-01T08:32:55.043Z,10.78
2018-12-01T08:35:25.340Z,18.37
2018-12-01T08:37:54.742Z,36.35
2018-12-01T08:40:26.566Z,20.97
2018-12-01T08:42:56.123Z,16.30
2018-12-01T08:45:25.583Z,27.77
2018-12-01T08:47:55.137Z,20.43
2018-12-01T08:50:24.811Z,28.57
2018-12-01T08:52:55.187Z,22.80
2018-12-01T08:55:25.261Z,41.00
2018-12-01T08:57:55.128Z,19.35
2018-12-01T09:00:35.673Z,15.98
2018-12-01T09:03:13.355Z,22.52
2018-12-01T09:05:42.855Z,24.52
2018-12-01T09:08:12.368Z,22.02
2018-12-01T09:10:41.929Z,25.97
2018-12-01T09:13:11.695Z,19.87
2018-12-01T09:15:41.133Z,25.45
2018-12-01T09:18:11.265Z,18.62
2018-12-01T09:20:40.719Z,26.07
2018-12-01T09:23:10.985Z,24.70
2018-12-01T09:25:43.100Z,20.20
2018-12-01T09:28:12.690Z,22.42
2018-12-01T09:30:42.939Z,20.85
2018-12-01T09:33:12.393Z,26.12
2018-12-01T09:35:41.859Z,17.90
2018-12-01T09:38:13.516Z,21.80
2018-12-01T09:40:42.941Z,28.25
2018-12-01T09:43:13.245Z,26.55
2018-12-01T09:45:42.821Z,31.42
2018-12-01T09:48:12.210Z,26.35
2018-12-01T09:50:41.684Z,23.42
2018-12-01T09:53:11.193Z,26.85
2018-12-01T09:55:40.639Z,28.40
2018-12-01T09:58:10.147Z,22.17
2018-12-01T10:00:39.879Z,27.13
2018-12-01T10:03:10.261Z,19.02
2018-12-01T10:05:39.685Z,23.15
2018-12-01T10:08:09.231Z,32.75
2018-12-01T10:10:39.161Z,30.02
2018-12-01T10:13:08.732Z,21.75
2018-12-01T10:15:38.271Z,22.58
2018-12-01T10:18:09.063Z,24.30
2018-12-01T10:20:38.831Z,36.08
2018-12-01T10:23:12.059Z,35.85
2018-12-01T10:25:41.581Z,22.22
2018-12-01T10:28:11.619Z,47.73
2018-12-01T10:30:41.399Z,25.25
2018-12-01T10:33:10.855Z,29.42
2018-12-01T10:35:40.313Z,26.27
2018-12-01T10:38:13.467Z,29.00
2018-12-01T10:40:42.928Z,30.65
2018-12-01T10:43:12.381Z,41.77
2018-12-01T10:45:41.880Z,36.28
2018-12-01T10:48:11.358Z,21.85
2018-12-01T10:50:40.845Z,24.87
2018-12-01T10:53:10.331Z,20.15
2018-12-01T10:55:39.753Z,28.35
2018-12-01T10:58:17.798Z,28.32
2018-12-01T11:00:53.639Z,23.20
2018-12-01T11:03:30.465Z,36.25
2018-12-01T11:06:01.095Z,32.05
2018-12-01T11:08:30.611Z,21.48
2018-12-01T11:11:00.085Z,38.15
2018-12-01T11:13:29.530Z,24.30
2018-12-01T11:15:59.006Z,42.35
2018-12-01T11:18:28.500Z,23.47
2018-12-01T11:20:57.998Z,28.60
2018-12-01T11:23:27.533Z,18.40
2018-12-01T11:25:56.980Z,24.02
2018-12-01T11:28:26.436Z,25.40
2018-12-01T11:30:56.988Z,17.95
2018-12-01T11:33:26.420Z,21.80
2018-12-01T11:35:55.932Z,52.30
2018-12-01T11:38:25.448Z,27.75
2018-12-01T11:40:54.850Z,38.25
2018-12-01T11:43:24.268Z,21.80
2018-12-01T11:45:53.738Z,20.27
2018-12-01T11:48:23.189Z,32.30
2018-12-01T11:50:52.740Z,22.85
2018-12-01T11:53:22.168Z,21.97
2018-12-01T11:55:51.624Z,31.55
2018-12-01T11:58:21.273Z,23.22
2018-12-01T12:00:50.765Z,21.45
2018-12-01T12:03:20.233Z,32.67
2018-12-01T12:05:49.790Z,28.73
2018-12-01T12:08:20.677Z,25.90
2018-12-01T12:10:50.207Z,22.05
2018-12-01T12:13:20.460Z,20.52
2018-12-01T12:15:50.273Z,21.93
2018-12-01T12:18:20.015Z,24.72
2018-12-01T12:20:49.648Z,27.40
2018-12-01T12:23:19.175Z,37.03
2018-12-01T12:25:48.613Z,23.20
2018-12-01T12:28:18.100Z,21.77
2018-12-01T12:30:47.595Z,26.00
2018-12-01T12:33:17.147Z,23.60
2018-12-01T12:35:46.718Z,21.77
2018-12-01T12:38:16.162Z,24.27
2018-12-01T12:40:45.613Z,24.70
2018-12-01T12:43:15.006Z,46.02
2018-12-01T12:45:44.459Z,31.30
2018-12-01T12:48:13.973Z,22.60
2018-12-01T12:50:43.469Z,31.00
2018-12-01T12:53:12.929Z,25.62
2018-12-01T12:55:42.381Z,22.98
2018-12-01T12:58:11.847Z,22.02
2018-12-01T13:00:41.369Z,23.05
2018-12-01T13:03:11.821Z,32.15
2018-12-01T13:05:45.528Z,31.33
2018-12-01T13:08:16.269Z,32.25
2018-12-01T13:10:45.762Z,22.77
2018-12-01T13:13:15.474Z,21.93
2018-12-01T13:15:45.163Z,29.32
2018-12-01T13:18:15.349Z,23.77
2018-12-01T13:20:46.297Z,27.60
2018-12-01T13:23:16.004Z,48.23
2018-12-01T13:25:45.621Z,20.68
2018-12-01T13:28:29.722Z,25.62
2018-12-01T13:31:00.534Z,34.88
2018-12-01T13:33:30.495Z,22.95
2018-12-01T13:36:00.542Z,25.88
2018-12-01T13:38:30.190Z,28.55
2018-12-01T13:40:59.810Z,27.75
2018-12-01T13:43:29.537Z,25.30
2018-12-01T13:45:59.211Z,24.05
2018-12-01T13:48:29.226Z,30.57
2018-12-01T13:50:58.866Z,27.58
2018-12-01T13:53:28.506Z,31.87
2018-12-01T13:55:58.176Z,23.98
2018-12-01T13:58:27.813Z,38.67
2018-12-01T14:00:57.422Z,33.55
2018-12-01T14:03:27.070Z,32.10
2018-12-01T14:05:56.754Z,35.25
2018-12-01T14:08:26.462Z,37.45
2018-12-01T14:10:56.102Z,32.05
2018-12-01T14:13:25.741Z,30.25
2018-12-01T14:15:55.456Z,29.75
2018-12-01T14:18:25.604Z,26.90
2018-12-01T14:20:55.327Z,30.20
2018-12-01T14:23:25.032Z,39.85
2018-12-01T14:25:54.694Z,23.95
2018-12-01T14:28:24.352Z,24.70
2018-12-01T14:30:54.476Z,35.15
2018-12-01T14:33:24.210Z,32.38
2018-12-01T14:35:54.934Z,23.77
2018-12-01T14:38:24.510Z,29.07
2018-12-01T14:40:54.158Z,24.90
2018-12-01T14:43:23.804Z,30.45
2018-12-01T14:45:53.493Z,30.85
2018-12-01T14:48:23.078Z,33.10
2018-12-01T14:50:52.543Z,35.55
2018-12-01T14:53:22.098Z,29.15
2018-12-01T14:55:51.622Z,34.92
2018-12-01T14:58:21.074Z,27.80
2018-12-01T15:00:50.540Z,27.00
2018-12-01T15:03:20.061Z,25.20
2018-12-01T15:05:49.585Z,23.12
2018-12-01T15:08:19.134Z,35.75
2018-12-01T15:10:49.664Z,25.95
2018-12-01T15:13:19.922Z,27.05
2018-12-01T15:15:49.548Z,26.00
2018-12-01T15:18:19.190Z,33.75
2018-12-01T15:20:48.868Z,28.98
2018-12-01T15:23:18.356Z,30.23
2018-12-01T15:25:47.879Z,29.90
2018-12-01T15:28:17.597Z,28.15
2018-12-01T15:30:47.144Z,30.05
2018-12-01T15:33:17.104Z,36.85
2018-12-01T15:35:47.315Z,26.90
2018-12-01T15:38:17.091Z,38.08
2018-12-01T15:40:49.861Z,45.30
2018-12-01T15:43:19.399Z,37.40
2018-12-01T15:45:48.886Z,43.95
2018-12-01T15:48:18.419Z,26.55
2018-12-01T15:50:47.880Z,20.85
2018-12-01T15:53:17.338Z,35.40
2018-12-01T15:55:46.876Z,25.52
2018-12-01T15:58:16.298Z,33.92
2018-12-01T16:00:45.786Z,42.50
2018-12-01T16:03:15.211Z,37.78
2018-12-01T16:05:44.703Z,28.95
2018-12-01T16:08:14.143Z,41.70
2018-12-01T16:10:43.635Z,31.12
2018-12-01T16:13:18.207Z,29.30
2018-12-01T16:15:49.312Z,24.98
2018-12-01T16:18:18.887Z,20.55
2018-12-01T16:20:48.406Z,28.92
2018-12-01T16:23:17.919Z,29.07
2018-12-01T16:25:47.371Z,28.47
2018-12-01T16:28:16.802Z,23.70
2018-12-01T16:30:46.702Z,22.32
2018-12-01T16:33:20.237Z,23.32
2018-12-01T16:35:50.562Z,23.90
2018-12-01T16:38:25.680Z,24.05
2018-12-01T16:41:00.752Z,27.27
2018-12-01T16:43:32.962Z,23.83
2018-12-01T16:46:02.417Z,29.42
2018-12-01T16:48:33.121Z,27.05
2018-12-01T16:51:01.441Z,24.98
2018-12-01T16:53:30.977Z,30.15
2018-12-01T16:56:00.470Z,20.70
2018-12-01T16:58:30.079Z,30.23
2018-12-01T17:00:59.565Z,25.12
2018-12-01T17:03:29.038Z,25.27
2018-12-01T17:06:01.211Z,29.00
2018-12-01T17:08:30.646Z,18.87
2018-12-01T17:11:00.136Z,38.30
2018-12-01T17:13:29.624Z,34.50
2018-12-01T17:15:59.095Z,27.95
2018-12-01T17:18:28.718Z,25.35
2018-12-01T17:20:58.216Z,41.55
2018-12-01T17:23:27.643Z,28.38
2018-12-01T17:25:57.154Z,28.83
2018-12-01T17:28:26.608Z,39.98
2018-12-01T17:30:56.114Z,37.08
2018-12-01T17:33:26.582Z,21.97
2018-12-01T17:35:55.098Z,59.83
2018-12-01T17:38:24.543Z,23.27
2018-12-01T17:40:58.337Z,46.23
2018-12-01T17:43:36.869Z,42.30
2018-12-01T17:46:06.454Z,31.75
2018-12-01T17:48:35.928Z,42.55
2018-12-01T17:51:05.480Z,35.45
2018-12-01T17:53:34.932Z,39.95
2018-12-01T17:56:04.489Z,25.85
2018-12-01T17:58:34.038Z,35.65
2018-12-01T18:01:03.526Z,31.12
2018-12-01T18:03:32.939Z,29.02
2018-12-01T18:06:02.724Z,47.35
2018-12-01T18:08:32.194Z,24.70
2018-12-01T18:11:01.580Z,31.55
2018-12-01T18:13:31.020Z,43.02
2018-12-01T18:16:00.489Z,33.92
2018-12-01T18:18:31.608Z,44.45
2018-12-01T18:21:01.095Z,35.48
2018-12-01T18:23:30.604Z,33.13
2018-12-01T18:26:00.300Z,27.17
2018-12-01T18:28:34.328Z,32.33
2018-12-01T18:31:08.293Z,38.60
2018-12-01T18:33:39.577Z,39.27
2018-12-01T18:36:10.833Z,32.95
2018-12-01T18:38:41.054Z,41.15
2018-12-01T18:41:11.641Z,42.90
2018-12-01T18:43:41.554Z,30.32
2018-12-01T18:46:13.044Z,39.40
2018-12-01T18:48:42.888Z,37.35
2018-12-01T18:52:41.703Z,33.73
2018-12-01T18:55:12.822Z,53.10
2018-12-01T18:57:42.448Z,41.80
2018-12-01T19:00:14.628Z,29.40
2018-12-01T19:02:44.332Z,46.20
2018-12-01T19:05:13.986Z,30.72
2018-12-01T19:07:43.560Z,41.60
2018-12-01T19:10:16.320Z,33.95
2018-12-01T19:12:45.797Z,35.13
2018-12-01T19:15:16.483Z,54.63
2018-12-01T19:17:47.330Z,36.63
2018-12-01T19:20:17.842Z,41.10
2018-12-01T19:22:48.546Z,43.55
2018-12-01T19:25:19.904Z,38.50
2018-12-01T19:27:50.304Z,51.68
2018-12-01T19:30:20.758Z,51.73
2018-12-01T19:32:52.617Z,35.48
2018-12-01T19:35:22.800Z,32.58
2018-12-01T19:37:54.044Z,48.00
2018-12-01T19:40:28.778Z,40.20
2018-12-01T19:42:57.970Z,43.80
2018-12-01T19:45:27.476Z,40.45
2018-12-01T19:47:57.062Z,64.37
2018-12-01T19:50:31.768Z,41.40
2018-12-01T19:53:01.949Z,35.98
2018-12-01T19:55:32.610Z,44.33
2018-12-01T19:58:03.030Z,43.35
2018-12-01T20:00:32.576Z,54.58
2018-12-01T20:03:03.541Z,34.45
2018-12-01T20:05:32.979Z,45.43
2018-12-01T20:08:02.537Z,52.80
2018-12-01T20:10:58.220Z,50.43
2018-12-01T20:13:32.704Z,38.90
2018-12-01T20:16:07.532Z,44.03
2018-12-01T20:18:37.252Z,42.90
2018-12-01T20:21:06.892Z,48.38
2018-12-01T20:23:36.332Z,56.80
2018-12-01T20:26:05.824Z,47.40
2018-12-01T20:28:35.696Z,60.52
2018-12-01T20:31:05.358Z,47.55
2018-12-01T20:33:34.813Z,51.18
2018-12-01T20:36:08.634Z,45.80
2018-12-01T20:38:42.636Z,73.10
2018-12-01T20:41:12.155Z,50.58
2018-12-01T20:43:42.569Z,53.23
2018-12-01T20:46:12.264Z,53.25
2018-12-01T20:48:42.020Z,58.65
2018-12-01T20:51:11.512Z,53.45
2018-12-01T20:53:41.038Z,41.13
2018-12-01T20:56:14.814Z,62.17
2018-12-01T20:58:44.327Z,53.08
2018-12-01T21:01:14.140Z,53.55
2018-12-01T21:03:43.628Z,81.15
2018-12-01T21:06:13.076Z,59.33
2018-12-01T21:08:42.549Z,51.15
2018-12-01T21:11:13.648Z,51.42
2018-12-01T21:13:43.108Z,66.90
2018-12-01T21:16:12.568Z,58.23
2018-12-01T21:18:42.044Z,50.88
2018-12-01T21:21:12.579Z,66.50
2018-12-01T21:23:42.055Z,48.00
2018-12-01T21:26:11.475Z,56.13
2018-12-01T21:28:40.928Z,53.05
2018-12-01T21:31:11.193Z,56.10
2018-12-01T21:33:40.649Z,50.65
2018-12-01T21:36:10.495Z,56.35
2018-12-01T21:38:39.974Z,50.88
2018-12-01T21:41:09.416Z,49.20
2018-12-01T21:43:38.923Z,58.25
2018-12-01T21:46:08.494Z,55.40
2018-12-01T21:48:37.986Z,62.33
2018-12-01T21:51:07.488Z,57.20
2018-12-01T21:53:37.008Z,55.88
2018-12-01T21:56:06.506Z,58.58
2018-12-01T21:58:35.983Z,74.80
2018-12-01T22:01:05.811Z,47.80
2018-12-01T22:03:35.268Z,49.98
2018-12-01T22:06:06.324Z,64.58
2018-12-01T22:10:05.796Z,74.35
2018-12-01T22:12:35.388Z,47.45
2018-12-01T22:15:04.999Z,54.08
2018-12-01T22:17:34.488Z,66.47
2018-12-01T22:20:04.381Z,86.40
2018-12-01T22:22:33.953Z,60.10
2018-12-01T22:25:03.537Z,64.07
2018-12-01T22:27:33.015Z,56.08
2018-12-01T22:30:02.503Z,55.10
2018-12-01T22:32:31.951Z,52.85
2018-12-01T22:35:02.312Z,52.03
2018-12-01T22:37:31.735Z,81.50
2018-12-01T22:40:01.296Z,72.37
2018-12-01T22:42:30.789Z,60.52
2018-12-01T22:45:00.236Z,59.93
2018-12-01T22:47:29.788Z,47.65
2018-12-01T22:49:59.284Z,73.12
2018-12-01T22:52:28.766Z,66.62
2018-12-01T22:54:58.262Z,50.15
2018-12-01T22:57:27.735Z,52.10
2018-12-01T22:59:57.188Z,66.35
2018-12-01T23:02:26.705Z,54.30
2018-12-01T23:04:56.288Z,61.98
2018-12-01T23:07:26.557Z,64.55
2018-12-01T23:09:56.158Z,69.80
2018-12-01T23:12:25.598Z,63.40
2018-12-01T23:14:55.110Z,64.87
2018-12-01T23:17:24.672Z,62.93
2018-12-01T23:19:54.204Z,70.03
2018-12-01T23:22:23.777Z,51.68
2018-12-01T23:24:53.418Z,55.83
2018-12-01T23:27:22.932Z,55.90
2018-12-01T23:29:52.440Z,52.60
2018-12-01T23:39:09.215Z,56.10
2018-12-01T23:41:38.701Z,65.85
2018-12-01T23:44:10.494Z,63.38
2018-12-01T23:46:40.011Z,108.12
2018-12-01T23:49:09.592Z,63.23
2018-12-01T23:51:39.028Z,65.70
2018-12-01T23:54:08.531Z,69.30
2018-12-01T23:56:37.998Z,61.83
2018-12-01T23:59:07.474Z,56.30
